Time;durP1;ratioP1;P1;durP2;ratioP2;P2;SDS_P1;SDS_P2;PMS_P1;PMS_P2;Temp;Humidity;BMP_temperature;BMP_pressure;BME280_temperature;BME280_humidity;BME280_pressure;Samples;Min_cycle;Max_cycle;Signal;HPM_P1;HPM_P2
2021/12/14 00:01:35;;;;;;;;;;;;;;;;;;5094120;28;19971;-77
2021/12/14 00:04:31;;;;;;;;;;;;;;;;;;5093474;28;19916;-77
2021/12/14 00:06:56;;;;;;;;;;;;;;;;;;5081258;28;19947;-77
2021/12/14 00:09:27;;;;;;;;;;;;;;;;;;5093977;28;20401;-77
2021/12/14 00:15:04;;;;;;;;;;;;;;;;;;5059728;28;20281;-77
2021/12/14 00:17:37;;;;;;;;;;;;;;;;;;5092467;28;19920;-77
2021/12/14 00:20:06;;;;;;;;;;;;;;;;;;5094134;28;19917;-77
2021/12/14 00:24:05;;;;;;;;;;;;;;;;;;5093743;28;19916;-77
2021/12/14 00:25:17;;;;;;;;;;;;;;;;;;5093585;28;20435;-76
2021/12/14 00:27:42;;;;;;;;;;;;;;;;;;5093903;28;20010;-78
2021/12/14 00:30:08;;;;;;;;;;;;;;;;;;5093834;28;20370;-78
2021/12/14 00:32:36;;;;;;;;;;;;;;;;;;5092811;28;19939;-77
2021/12/14 00:35:03;;;;;;;;;;;;;;;;;;5091680;28;19916;-78
2021/12/14 00:37:35;;;;;;;;;;;;;;;;;;5093709;28;19920;-78
2021/12/14 00:40:05;;;;;;;;;;;;;;;;;;5093682;28;19951;-78
2021/12/14 00:42:30;;;;;;;;;;;;;;;;;;5093895;28;19923;-77
2021/12/14 00:44:56;;;;;;;;;;;;;;;;;;5093748;28;19916;-77
2021/12/14 00:47:21;;;;;;;;;;;;;;;;;;5093321;28;20413;-77
2021/12/14 00:49:47;;;;;;;;;;;;;;;;;;5093576;28;20275;-78
2021/12/14 00:52:12;;;;;;;;;;;;;;;;;;5093944;28;19916;-77
2021/12/14 00:54:39;;;;;;;;;;;;;;;;;;5093510;28;19916;-78
2021/12/14 00:57:05;;;;;;;;;;;;;;;;;;5092329;28;20385;-78
2021/12/14 00:59:31;;;;;;;;;;;;;;;;;;5092274;28;19916;-77
2021/12/14 01:01:59;;;;;;;;;;;;;;;;;;5092322;28;19916;-78
2021/12/14 01:04:27;;;;;;;;;;;;;;;;;;5092207;28;19927;-77
2021/12/14 01:06:53;;;;;;;;;;;;;;;;;;5092395;28;19916;-77
2021/12/14 01:09:21;;;;;;;;;;;;;;;;;;5092221;28;19926;-78
2021/12/14 01:11:47;;;;;;;;;;;;;;;;;;5092206;28;19923;-77
2021/12/14 01:14:19;;;;;;;;;;;;;;;;;;5092239;28;19916;-77
2021/12/14 01:17:05;;;;;;;;;;;;;;;;;;5075265;28;19920;-77
2021/12/14 01:19:32;;;;;;;;;;;;;;;;;;5093373;28;19977;-78
2021/12/14 01:27:16;;;;;;;;;;;;;;;;;;5092220;28;19916;-77
2021/12/14 01:29:43;;;;;;;;;;;;;;;;;;5092056;28;19916;-78
2021/12/14 01:32:10;;;;;;;;;;;;;;;;;;5093205;28;19923;-78
2021/12/14 01:34:37;;;;;;;;;;;;;;;;;;5095632;28;19927;-77
2021/12/14 01:37:07;;;;;;;;;;;;;;;;;;5095548;28;20001;-77
2021/12/14 01:40:03;;;;;;;;;;;;;;;;;;5096220;28;20289;-77
2021/12/14 01:42:35;;;;;;;;;;;;;;;;;;5095728;28;19916;-77
2021/12/14 01:45:04;;;;;;;;;;;;;;;;;;5096833;28;19920;-77
2021/12/14 01:47:54;;;;;;;;;;;;;;;;;;5095339;28;20293;-77
2021/12/14 01:50:41;;;;;;;;;;;;;;;;;;5095554;28;20378;-77
2021/12/14 01:53:14;;;;;;;;;;;;;;;;;;5094809;28;21438;-77
2021/12/14 01:55:43;;;;;;;;;;;;;;;;;;5096466;28;19943;-77
2021/12/14 01:58:10;;;;;;;;;;;;;;;;;;5095130;28;20445;-77
2021/12/14 02:00:41;;;;;;;;;;;;;;;;;;5095205;28;19976;-77
2021/12/14 02:03:07;;;;;;;;;;;;;;;;;;5096422;28;20394;-77
2021/12/14 02:05:35;;;;;;;;;;;;;;;;;;5095342;28;19961;-77
2021/12/14 02:08:02;;;;;;;;;;;;;;;;;;5095212;28;19927;-77
2021/12/14 02:10:30;;;;;;;;;;;;;;;;;;5095085;28;19970;-77
2021/12/14 02:12:57;;;;;;;;;;;;;;;;;;5095159;28;20001;-78
2021/12/14 02:15:29;;;;;;;;;;;;;;;;;;5094884;28;19916;-77
2021/12/14 02:17:57;;;;;;;;;;;;;;;;;;5094759;28;19928;-77
2021/12/14 02:20:27;;;;;;;;;;;;;;;;;;5094934;28;19912;-77
2021/12/14 02:22:52;;;;;;;;;;;;;;;;;;5095026;28;19916;-77
2021/12/14 02:25:18;;;;;;;;;;;;;;;;;;5094926;28;19939;-77
2021/12/14 02:27:45;;;;;;;;;;;;;;;;;;5094802;28;19920;-77
2021/12/14 02:30:13;;;;;;;;;;;;;;;;;;5096093;28;19999;-77
2021/12/14 02:32:42;;;;;;;;;;;;;;;;;;5096058;28;20019;-77
2021/12/14 02:35:10;;;;;;;;;;;;;;;;;;5094624;28;19916;-77
2021/12/14 02:37:41;;;;;;;;;;;;;;;;;;5094411;28;20008;-77
2021/12/14 02:40:19;;;;;;;;;;;;;;;;;;5111887;28;19922;-77
2021/12/14 02:42:45;;;;;;;;;;;;;;;;;;5114750;28;20265;-78
2021/12/14 02:45:11;;;;;;;;;;;;;;;;;;5113882;28;20292;-77
2021/12/14 02:47:36;;;;;;;;;;;;;;;;;;5115871;28;19920;-77
2021/12/14 02:50:03;;;;;;;;;;;;;;;;;;5114469;28;19916;-77
2021/12/14 02:52:34;;;;;;;;;;;;;;;;;;5114500;28;19916;-77
2021/12/14 02:55:03;;;;;;;;;;;;;;;;;;5114707;28;19916;-77
2021/12/14 02:57:34;;;;;;;;;;;;;;;;;;5097676;28;19963;-77
2021/12/14 03:00:00;;;;;;;;;;;;;;;;;;5114585;28;20010;-77
2021/12/14 03:02:27;;;;;;;;;;;;;;;;;;5114605;28;19966;-77
2021/12/14 03:04:55;;;;;;;;;;;;;;;;;;5096638;28;19916;-77
2021/12/14 03:07:24;;;;;;;;;;;;;;;;;;5095106;28;19916;-77
2021/12/14 03:12:21;;;;;;;;;;;;;;;;;;5095268;28;20019;-77
2021/12/14 03:14:55;;;;;;;;;;;;;;;;;;5077084;28;19916;-76
2021/12/14 03:17:20;;;;;;;;;;;;;;;;;;5094868;28;19924;-77
2021/12/14 03:19:53;;;;;;;;;;;;;;;;;;5094888;28;19943;-77
2021/12/14 03:22:28;;;;;;;;;;;;;;;;;;5093746;28;20400;-77
2021/12/14 03:24:55;;;;;;;;;;;;;;;;;;5093781;28;20319;-77
2021/12/14 03:27:20;;;;;;;;;;;;;;;;;;5094802;28;19916;-77
2021/12/14 03:29:45;;;;;;;;;;;;;;;;;;5094764;28;19977;-76
2021/12/14 03:32:11;;;;;;;;;;;;;;;;;;5093622;28;20251;-76
2021/12/14 03:34:38;;;;;;;;;;;;;;;;;;5107050;28;19919;-77
2021/12/14 03:37:12;;;;;;;;;;;;;;;;;;5113698;28;20377;-77
2021/12/14 03:39:43;;;;;;;;;;;;;;;;;;5113956;28;19916;-77
2021/12/14 03:42:11;;;;;;;;;;;;;;;;;;5113809;28;19990;-77
2021/12/14 03:44:40;;;;;;;;;;;;;;;;;;5113562;28;19915;-77
2021/12/14 03:47:05;;;;;;;;;;;;;;;;;;5113557;28;20361;-76
2021/12/14 03:49:35;;;;;;;;;;;;;;;;;;5113398;28;19937;-76
2021/12/14 03:52:01;;;;;;;;;;;;;;;;;;5113472;28;20446;-76
2021/12/14 03:54:26;;;;;;;;;;;;;;;;;;5113109;28;19919;-77
2021/12/14 03:56:51;;;;;;;;;;;;;;;;;;5114415;28;19994;-77
2021/12/14 03:59:21;;;;;;;;;;;;;;;;;;5096693;28;19923;-77
2021/12/14 04:01:50;;;;;;;;;;;;;;;;;;5114480;28;20002;-76
2021/12/14 04:04:19;;;;;;;;;;;;;;;;;;5112755;28;20324;-78
2021/12/14 04:06:46;;;;;;;;;;;;;;;;;;5091720;28;19951;-77
2021/12/14 04:09:13;;;;;;;;;;;;;;;;;;5092846;28;19917;-77
2021/12/14 04:11:39;;;;;;;;;;;;;;;;;;5093034;28;19916;-77
2021/12/14 04:14:07;;;;;;;;;;;;;;;;;;5092854;28;19974;-77
2021/12/14 04:16:36;;;;;;;;;;;;;;;;;;5092870;28;20003;-78
2021/12/14 04:19:04;;;;;;;;;;;;;;;;;;5092693;28;19926;-77
2021/12/14 04:21:32;;;;;;;;;;;;;;;;;;5092795;28;19916;-77
2021/12/14 04:23:57;;;;;;;;;;;;;;;;;;5092876;28;20373;-77
2021/12/14 04:26:23;;;;;;;;;;;;;;;;;;5092504;28;19923;-77
2021/12/14 04:28:51;;;;;;;;;;;;;;;;;;5092630;28;19966;-77
2021/12/14 04:31:16;;;;;;;;;;;;;;;;;;5092669;28;19920;-77
2021/12/14 04:33:46;;;;;;;;;;;;;;;;;;5076106;28;19916;-77
2021/12/14 04:36:14;;;;;;;;;;;;;;;;;;5092528;28;19922;-77
2021/12/14 04:38:54;;;;;;;;;;;;;;;;;;5092389;28;20016;-77
2021/12/14 04:52:23;;;;;;;;;;;;;;;;;;5092418;28;19916;-77
2021/12/14 04:54:54;;;;;;;;;;;;;;;;;;5092605;28;19981;-77
2021/12/14 04:57:26;;;;;;;;;;;;;;;;;;5092332;28;19920;-77
2021/12/14 04:59:54;;;;;;;;;;;;;;;;;;5092294;28;19916;-77
2021/12/14 05:02:22;;;;;;;;;;;;;;;;;;5092519;28;19916;-77
2021/12/14 05:04:59;;;;;;;;;;;;;;;;;;5092338;28;20007;-77
2021/12/14 05:07:33;;;;;;;;;;;;;;;;;;5093912;28;19923;-77
2021/12/14 05:10:04;;;;;;;;;;;;;;;;;;5096347;28;19916;-77
2021/12/14 05:12:32;;;;;;;;;;;;;;;;;;5096383;28;19916;-77
2021/12/14 05:15:18;;;;;;;;;;;;;;;;;;5096864;28;19995;-77
2021/12/14 05:17:49;;;;;;;;;;;;;;;;;;5095914;28;19927;-77
2021/12/14 05:20:16;;;;;;;;;;;;;;;;;;5096144;28;19964;-77
2021/12/14 05:22:44;;;;;;;;;;;;;;;;;;5097607;28;19923;-77
2021/12/14 05:25:16;;;;;;;;;;;;;;;;;;5096245;28;19916;-77
2021/12/14 05:27:44;;;;;;;;;;;;;;;;;;5098665;28;19916;-78
2021/12/14 05:30:12;;;;;;;;;;;;;;;;;;5096810;28;19917;-77
2021/12/14 05:32:55;;;;;;;;;;;;;;;;;;5097831;28;19916;-77
2021/12/14 05:35:20;;;;;;;;;;;;;;;;;;5095860;28;20357;-77
2021/12/14 05:37:50;;;;;;;;;;;;;;;;;;5095479;28;19986;-77
2021/12/14 05:40:55;;;;;;;;;;;;;;;;;;5095765;28;19920;-77
2021/12/14 05:43:07;;;;;;;;;;;;;;;;;;5095559;28;19920;-76
2021/12/14 05:46:04;;;;;;;;;;;;;;;;;;5095350;28;19955;-76
2021/12/14 05:48:36;;;;;;;;;;;;;;;;;;5095152;28;19916;-77
2021/12/14 05:51:09;;;;;;;;;;;;;;;;;;5096240;28;20385;-77
2021/12/14 05:53:41;;;;;;;;;;;;;;;;;;5095291;28;19927;-77
2021/12/14 05:56:09;;;;;;;;;;;;;;;;;;5095427;28;19926;-77
2021/12/14 05:58:35;;;;;;;;;;;;;;;;;;5096494;28;19920;-77
2021/12/14 06:01:03;;;;;;;;;;;;;;;;;;5096518;28;19923;-77
2021/12/14 06:03:33;;;;;;;;;;;;;;;;;;5094427;28;19916;-77
2021/12/14 06:05:59;;;;;;;;;;;;;;;;;;5095123;28;19916;-77
2021/12/14 06:08:26;;;;;;;;;;;;;;;;;;5095104;28;19923;-77
2021/12/14 06:10:58;;;;;;;;;;;;;;;;;;5095054;28;19916;-77
2021/12/14 06:13:39;;;;;;;;;;;;;;;;;;5096038;28;19916;-76
2021/12/14 06:16:04;;;;;;;;;;;;;;;;;;5095073;28;19991;-76
2021/12/14 06:18:29;;;;;;;;;;;;;;;;;;5096171;28;19921;-76
2021/12/14 06:21:01;;;;;;;;;;;;;;;;;;5095298;28;20002;-75
2021/12/14 06:23:31;;;;;;;;;;;;;;;;;;5095027;28;19916;-76
2021/12/14 06:26:19;;;;;;;;;;;;;;;;;;5094851;28;19916;-77
2021/12/14 06:28:45;;;;;;;;;;;;;;;;;;5096090;28;20328;-76
2021/12/14 06:31:10;;;;;;;;;;;;;;;;;;5096014;28;20020;-76
2021/12/14 06:33:35;;;;;;;;;;;;;;;;;;5095238;28;19920;-76
2021/12/14 06:36:08;;;;;;;;;;;;;;;;;;5094681;28;19916;-77
2021/12/14 06:38:34;;;;;;;;;;;;;;;;;;5094417;28;19924;-77
2021/12/14 06:41:15;;;;;;;;;;;;;;;;;;5077402;28;19924;-76
2021/12/14 06:43:52;;;;;;;;;;;;;;;;;;5094226;28;19920;-77
2021/12/14 06:46:19;;;;;;;;;;;;;;;;;;5095246;28;19920;-76
2021/12/14 06:48:49;;;;;;;;;;;;;;;;;;5093811;28;19948;-77
2021/12/14 06:51:17;;;;;;;;;;;;;;;;;;5094481;28;19985;-78
2021/12/14 06:53:51;;;;;;;;;;;;;;;;;;5094626;28;19916;-78
2021/12/14 06:56:25;;;;;;;;;;;;;;;;;;5097180;28;19916;-77
2021/12/14 06:59:10;;;;;;;;;;;;;;;;;;5096274;28;19927;-78
2021/12/14 07:01:52;;;;;;;;;;;;;;;;;;5095510;28;19961;-78
2021/12/14 07:04:23;;;;;;;;;;;;;;;;;;5093223;28;19925;-78
2021/12/14 07:06:49;;;;;;;;;;;;;;;;;;5094267;28;19958;-77
2021/12/14 07:09:23;;;;;;;;;;;;;;;;;;5094930;28;19923;-77
2021/12/14 07:11:56;;;;;;;;;;;;;;;;;;5096029;28;19920;-78
2021/12/14 07:14:29;;;;;;;;;;;;;;;;;;5095217;28;19916;-78
2021/12/14 07:16:55;;;;;;;;;;;;;;;;;;5095888;28;19923;-78
2021/12/14 07:19:38;;;;;;;;;;;;;;;;;;5096195;28;19912;-78
2021/12/14 07:22:04;;;;;;;;;;;;;;;;;;5095001;28;19938;-78
2021/12/14 07:24:32;;;;;;;;;;;;;;;;;;5095171;28;20409;-77
2021/12/14 07:27:16;;;;;;;;;;;;;;;;;;5094987;28;20399;-77
2021/12/14 07:29:41;;;;;;;;;;;;;;;;;;5094223;28;19923;-77
2021/12/14 07:32:06;;;;;;;;;;;;;;;;;;5094700;28;19919;-77
2021/12/14 07:34:32;;;;;;;;;;;;;;;;;;5093754;28;19974;-77
2021/12/14 07:36:58;;;;;;;;;;;;;;;;;;5094415;28;20327;-76
2021/12/14 07:39:23;;;;;;;;;;;;;;;;;;5094672;28;19923;-77
2021/12/14 07:41:50;;;;;;;;;;;;;;;;;;5094395;28;19916;-76
2021/12/14 07:44:24;;;;;;;;;;;;;;;;;;5093102;28;19916;-77
2021/12/14 07:46:52;;;;;;;;;;;;;;;;;;5093381;28;19926;-76
2021/12/14 07:49:32;;;;;;;;;;;;;;;;;;5094377;28;19916;-76
2021/12/14 07:52:03;;;;;;;;;;;;;;;;;;5094457;28;19923;-77
2021/12/14 07:54:38;;;;;;;;;;;;;;;;;;5096916;28;19916;-79
2021/12/14 07:57:05;;;;;;;;;;;;;;;;;;5098738;28;19916;-78
2021/12/14 07:59:32;;;;;;;;;;;;;;;;;;5097087;28;19923;-79
2021/12/14 08:02:08;;;;;;;;;;;;;;;;;;5097441;28;19916;-78
2021/12/14 08:04:35;;;;;;;;;;;;;;;;;;5099046;28;20305;-80
2021/12/14 08:07:03;;;;;;;;;;;;;;;;;;5099713;28;19916;-78
2021/12/14 08:09:48;;;;;;;;;;;;;;;;;;5096935;28;19916;-78
2021/12/14 08:12:33;;;;;;;;;;;;;;;;;;5080043;28;19931;-78
2021/12/14 08:15:00;;;;;;;;;;;;;;;;;;5097588;28;19917;-78
2021/12/14 08:17:26;;;;;;;;;;;;;;;;;;5100966;28;19986;-80
2021/12/14 08:19:52;;;;;;;;;;;;;;;;;;5103864;28;19916;-80
2021/12/14 08:22:32;;;;;;;;;;;;;;;;;;5096654;28;19916;-80
2021/12/14 08:24:58;;;;;;;;;;;;;;;;;;5094051;28;19955;-80
2021/12/14 08:27:24;;;;;;;;;;;;;;;;;;5079168;28;19916;-80
2021/12/14 08:29:51;;;;;;;;;;;;;;;;;;5090111;28;19916;-79
2021/12/14 08:32:20;;;;;;;;;;;;;;;;;;5091803;28;20007;-80
2021/12/14 08:34:47;;;;;;;;;;;;;;;;;;5095654;28;19916;-77
2021/12/14 08:37:12;;;;;;;;;;;;;;;;;;5092667;28;19967;-77
2021/12/14 08:39:41;;;;;;;;;;;;;;;;;;5094006;28;19916;-76
2021/12/14 08:42:10;;;;;;;;;;;;;;;;;;5096829;28;19920;-78
2021/12/14 08:44:39;;;;;;;;;;;;;;;;;;5099046;28;19967;-79
2021/12/14 08:47:09;;;;;;;;;;;;;;;;;;5102534;28;19920;-76
2021/12/14 08:49:35;;;;;;;;;;;;;;;;;;5102313;28;19923;-78
2021/12/14 08:52:00;;;;;;;;;;;;;;;;;;5102490;28;19916;-77
2021/12/14 08:54:29;;;;;;;;;;;;;;;;;;5097659;28;19956;-78
2021/12/14 08:57:00;;;;;;;;;;;;;;;;;;5096580;28;19916;-76
2021/12/14 08:59:26;;;;;;;;;;;;;;;;;;5098073;28;19969;-76
2021/12/14 09:01:52;;;;;;;;;;;;;;;;;;5096362;28;19916;-77
2021/12/14 09:04:20;;;;;;;;;;;;;;;;;;5097659;28;19916;-76
2021/12/14 09:06:48;;;;;;;;;;;;;;;;;;5096478;28;19920;-77
2021/12/14 09:09:15;;;;;;;;;;;;;;;;;;5098708;28;19916;-77
2021/12/14 09:11:42;;;;;;;;;;;;;;;;;;5098655;28;20010;-77
2021/12/14 09:14:13;;;;;;;;;;;;;;;;;;5097553;28;19916;-77
2021/12/14 09:16:39;;;;;;;;;;;;;;;;;;5099310;28;20587;-78
2021/12/14 09:19:10;;;;;;;;;;;;;;;;;;5102421;28;19920;-80
2021/12/14 09:21:39;;;;;;;;;;;;;;;;;;5105272;28;19920;-79
2021/12/14 09:24:06;;;;;;;;;;;;;;;;;;5104708;28;19979;-79
2021/12/14 09:26:35;;;;;;;;;;;;;;;;;;5099484;28;19920;-77
2021/12/14 09:29:01;;;;;;;;;;;;;;;;;;5098301;28;19923;-76
2021/12/14 09:31:28;;;;;;;;;;;;;;;;;;5097060;28;19927;-77
2021/12/14 09:33:55;;;;;;;;;;;;;;;;;;5097363;28;20462;-77
2021/12/14 09:36:22;;;;;;;;;;;;;;;;;;5098120;28;19966;-79
2021/12/14 09:38:50;;;;;;;;;;;;;;;;;;5100580;28;19934;-78
2021/12/14 09:41:18;;;;;;;;;;;;;;;;;;5098874;28;19920;-78
2021/12/14 09:43:45;;;;;;;;;;;;;;;;;;5099452;28;20246;-78
2021/12/14 09:46:11;;;;;;;;;;;;;;;;;;5096155;28;19920;-76
2021/12/14 09:48:41;;;;;;;;;;;;;;;;;;5097524;28;20370;-76
2021/12/14 09:51:10;;;;;;;;;;;;;;;;;;5096945;28;19920;-77
2021/12/14 09:53:39;;;;;;;;;;;;;;;;;;5094632;28;19920;-76
2021/12/14 09:56:05;;;;;;;;;;;;;;;;;;5095525;28;19916;-77
2021/12/14 09:58:33;;;;;;;;;;;;;;;;;;5096488;28;19920;-78
2021/12/14 10:01:05;;;;;;;;;;;;;;;;;;5097246;28;19939;-77
2021/12/14 10:03:30;;;;;;;;;;;;;;;;;;5096380;28;20003;-77
2021/12/14 10:05:58;;;;;;;;;;;;;;;;;;5106037;28;19990;-79
2021/12/14 10:08:26;;;;;;;;;;;;;;;;;;5123241;28;19947;-79
2021/12/14 10:11:12;;;;;;;;;;;;;;;;;;5119761;28;19919;-76
2021/12/14 10:13:44;;;;;;;;;;;;;;;;;;5118672;28;19958;-78
2021/12/14 10:16:10;;;;;;;;;;;;;;;;;;5117921;28;19923;-79
2021/12/14 10:18:36;;;;;;;;;;;;;;;;;;5121256;28;20289;-77
2021/12/14 10:21:05;;;;;;;;;;;;;;;;;;5118842;28;20045;-77
2021/12/14 10:23:31;;;;;;;;;;;;;;;;;;5115361;28;20296;-76
2021/12/14 10:25:57;;;;;;;;;;;;;;;;;;5116794;28;19972;-77
2021/12/14 10:28:24;;;;;;;;;;;;;;;;;;5098532;28;19915;-76
2021/12/14 10:30:54;;;;;;;;;;;;;;;;;;5116619;28;20284;-77
2021/12/14 10:33:20;;;;;;;;;;;;;;;;;;5116686;28;19916;-76
2021/12/14 10:35:50;;;;;;;;;;;;;;;;;;5110851;28;19961;-77
2021/12/14 10:38:28;;;;;;;;;;;;;;;;;;5096505;28;19927;-78
2021/12/14 10:43:42;;;;;;;;;;;;;;;;;;5095807;28;19916;-76
2021/12/14 10:46:20;;;;;;;;;;;;;;;;;;5094340;28;19922;-76
2021/12/14 10:48:46;;;;;;;;;;;;;;;;;;5095077;28;19923;-77
2021/12/14 10:51:13;;;;;;;;;;;;;;;;;;5095795;28;19923;-76
2021/12/14 10:53:42;;;;;;;;;;;;;;;;;;5095542;28;20404;-76
2021/12/14 10:56:13;;;;;;;;;;;;;;;;;;5095548;28;19969;-77
2021/12/14 10:58:39;;;;;;;;;;;;;;;;;;5095833;28;19920;-77
2021/12/14 11:01:07;;;;;;;;;;;;;;;;;;5095923;28;20366;-82
2021/12/14 11:03:37;;;;;;;;;;;;;;;;;;5095008;28;19916;-79
2021/12/14 11:06:06;;;;;;;;;;;;;;;;;;5099777;28;19960;-79
2021/12/14 11:10:58;;;;;;;;;;;;;;;;;;5116179;28;20407;-76
2021/12/14 11:13:24;;;;;;;;;;;;;;;;;;5115531;28;19915;-76
2021/12/14 11:15:52;;;;;;;;;;;;;;;;;;5116214;28;19912;-79
2021/12/14 11:18:21;;;;;;;;;;;;;;;;;;5115366;28;19919;-75
2021/12/14 11:20:57;;;;;;;;;;;;;;;;;;5115111;28;19972;-75
2021/12/14 11:23:22;;;;;;;;;;;;;;;;;;5097086;28;20018;-76
2021/12/14 11:25:51;;;;;;;;;;;;;;;;;;5115300;28;19955;-75
2021/12/14 11:28:23;;;;;;;;;;;;;;;;;;5115346;28;20261;-76
2021/12/14 11:30:51;;;;;;;;;;;;;;;;;;5115249;28;19915;-75
2021/12/14 11:33:17;;;;;;;;;;;;;;;;;;5115184;28;19920;-75
2021/12/14 11:35:49;;;;;;;;;;;;;;;;;;5113307;28;19920;-78
2021/12/14 11:38:23;;;;;;;;;;;;;;;;;;5096714;28;19946;-77
2021/12/14 11:40:48;;;;;;;;;;;;;;;;;;5094052;28;19916;-77
2021/12/14 11:43:16;;;;;;;;;;;;;;;;;;5095430;28;19962;-78
2021/12/14 11:45:46;;;;;;;;;;;;;;;;;;5093966;28;19916;-78
2021/12/14 11:48:11;;;;;;;;;;;;;;;;;;5091130;28;19920;-79
2021/12/14 11:50:39;;;;;;;;;;;;;;;;;;5094993;28;19969;-79
2021/12/14 11:53:05;;;;;;;;;;;;;;;;;;5094163;28;19916;-79
2021/12/14 11:55:49;;;;;;;;;;;;;;;;;;5094720;28;20293;-79
2021/12/14 11:58:25;;;;;;;;;;;;;;;;;;5100417;28;20305;-78
2021/12/14 12:01:03;;;;;;;;;;;;;;;;;;5100384;28;20037;-76
2021/12/14 12:03:34;;;;;;;;;;;;;;;;;;5094617;28;19916;-77
2021/12/14 12:06:05;;;;;;;;;;;;;;;;;;5094600;28;19923;-77
2021/12/14 12:11:16;;;;;;;;;;;;;;;;;;5092822;28;19923;-77
2021/12/14 12:13:42;;;;;;;;;;;;;;;;;;5094070;28;20301;-78
2021/12/14 12:16:08;;;;;;;;;;;;;;;;;;5093757;28;19916;-78
2021/12/14 12:18:34;;;;;;;;;;;;;;;;;;5093873;28;19920;-76
2021/12/14 12:20:59;;;;;;;;;;;;;;;;;;5094051;28;19916;-76
2021/12/14 12:23:26;;;;;;;;;;;;;;;;;;5092790;28;19916;-76
2021/12/14 12:25:58;;;;;;;;;;;;;;;;;;5093714;28;19923;-77
2021/12/14 12:28:23;;;;;;;;;;;;;;;;;;5093694;28;20510;-77
2021/12/14 12:30:54;;;;;;;;;;;;;;;;;;5093980;28;19932;-77
2021/12/14 12:33:25;;;;;;;;;;;;;;;;;;5092000;28;19916;-78
2021/12/14 12:35:57;;;;;;;;;;;;;;;;;;5073844;28;20404;-78
2021/12/14 12:38:41;;;;;;;;;;;;;;;;;;5072409;28;19921;-78
2021/12/14 12:41:12;;;;;;;;;;;;;;;;;;5073739;28;19926;-78
2021/12/14 12:43:46;;;;;;;;;;;;;;;;;;5073445;28;19966;-77
2021/12/14 12:46:21;;;;;;;;;;;;;;;;;;5072231;28;19920;-77
2021/12/14 12:48:50;;;;;;;;;;;;;;;;;;5073883;28;19920;-77
2021/12/14 12:51:33;;;;;;;;;;;;;;;;;;5073410;28;20015;-78
2021/12/14 12:54:10;;;;;;;;;;;;;;;;;;5073571;28;20390;-76
2021/12/14 12:56:38;;;;;;;;;;;;;;;;;;5073521;28;20332;-76
2021/12/14 12:59:06;;;;;;;;;;;;;;;;;;5071993;28;19916;-77
2021/12/14 13:01:31;;;;;;;;;;;;;;;;;;5073699;28;20354;-77
2021/12/14 13:03:56;;;;;;;;;;;;;;;;;;5089118;28;19969;-77
2021/12/14 13:06:22;;;;;;;;;;;;;;;;;;5114028;28;19965;-76
2021/12/14 13:08:51;;;;;;;;;;;;;;;;;;5112431;28;20347;-77
2021/12/14 13:11:17;;;;;;;;;;;;;;;;;;5113562;28;19920;-77
2021/12/14 13:13:46;;;;;;;;;;;;;;;;;;5113622;28;19984;-76
2021/12/14 13:16:11;;;;;;;;;;;;;;;;;;5113659;28;19916;-77
2021/12/14 13:18:57;;;;;;;;;;;;;;;;;;5114202;28;20014;-78
2021/12/14 13:21:25;;;;;;;;;;;;;;;;;;5113409;28;19915;-77
2021/12/14 13:23:55;;;;;;;;;;;;;;;;;;5113790;28;20297;-77
2021/12/14 13:26:30;;;;;;;;;;;;;;;;;;5113511;28;19916;-76
2021/12/14 13:28:58;;;;;;;;;;;;;;;;;;5115083;28;19962;-78
2021/12/14 13:31:25;;;;;;;;;;;;;;;;;;5116614;28;19968;-77
2021/12/14 13:33:51;;;;;;;;;;;;;;;;;;5118290;28;19915;-77
2021/12/14 13:36:17;;;;;;;;;;;;;;;;;;5114273;28;19920;-78
2021/12/14 13:38:42;;;;;;;;;;;;;;;;;;5096377;28;19977;-79
2021/12/14 13:41:16;;;;;;;;;;;;;;;;;;5098130;28;19916;-79
2021/12/14 13:43:42;;;;;;;;;;;;;;;;;;5097646;28;19916;-77
2021/12/14 13:46:08;;;;;;;;;;;;;;;;;;5096362;28;19922;-78
2021/12/14 13:48:35;;;;;;;;;;;;;;;;;;5097872;28;19923;-77
2021/12/14 13:51:11;;;;;;;;;;;;;;;;;;5096805;28;20021;-76
2021/12/14 13:53:37;;;;;;;;;;;;;;;;;;5096286;28;19926;-77
2021/12/14 13:56:04;;;;;;;;;;;;;;;;;;5096221;28;19916;-77
2021/12/14 13:58:31;;;;;;;;;;;;;;;;;;5080252;28;19926;-76
2021/12/14 14:01:02;;;;;;;;;;;;;;;;;;5075890;28;19974;-78
2021/12/14 14:03:29;;;;;;;;;;;;;;;;;;5075357;28;19917;-76
2021/12/14 14:05:56;;;;;;;;;;;;;;;;;;5074278;28;19920;-76
2021/12/14 14:08:23;;;;;;;;;;;;;;;;;;5075718;28;19917;-76
2021/12/14 14:10:49;;;;;;;;;;;;;;;;;;5075804;28;19917;-76
2021/12/14 14:13:23;;;;;;;;;;;;;;;;;;5076254;28;19924;-76
2021/12/14 14:15:50;;;;;;;;;;;;;;;;;;5076129;28;19939;-77
2021/12/14 14:18:16;;;;;;;;;;;;;;;;;;5074746;28;19942;-76
2021/12/14 14:20:48;;;;;;;;;;;;;;;;;;5075975;28;20430;-76
2021/12/14 14:23:19;;;;;;;;;;;;;;;;;;5076009;28;19955;-76
2021/12/14 14:25:54;;;;;;;;;;;;;;;;;;5075765;28;20370;-77
2021/12/14 14:28:28;;;;;;;;;;;;;;;;;;5076146;28;19965;-76
2021/12/14 14:30:54;;;;;;;;;;;;;;;;;;5075956;28;19973;-77
2021/12/14 14:33:30;;;;;;;;;;;;;;;;;;5075914;28;19923;-78
2021/12/14 14:35:56;;;;;;;;;;;;;;;;;;5081231;28;19920;-76
2021/12/14 14:38:32;;;;;;;;;;;;;;;;;;5095721;28;19935;-76
2021/12/14 14:41:03;;;;;;;;;;;;;;;;;;5095933;28;19923;-76
2021/12/14 14:43:47;;;;;;;;;;;;;;;;;;5096118;28;20057;-75
2021/12/14 14:46:12;;;;;;;;;;;;;;;;;;5095368;28;20417;-76
2021/12/14 14:48:37;;;;;;;;;;;;;;;;;;5102430;28;19945;-77
2021/12/14 14:51:03;;;;;;;;;;;;;;;;;;5115968;28;19923;-76
2021/12/14 14:53:32;;;;;;;;;;;;;;;;;;5115814;28;19915;-77
2021/12/14 14:55:58;;;;;;;;;;;;;;;;;;5115953;28;20010;-76
2021/12/14 14:58:28;;;;;;;;;;;;;;;;;;5115687;28;19920;-76
2021/12/14 15:00:57;;;;;;;;;;;;;;;;;;5116129;28;20341;-75
2021/12/14 15:03:28;;;;;;;;;;;;;;;;;;5115621;28;20411;-75
2021/12/14 15:06:00;;;;;;;;;;;;;;;;;;5114600;28;19922;-77
2021/12/14 15:08:35;;;;;;;;;;;;;;;;;;5075087;28;19917;-77
2021/12/14 15:11:03;;;;;;;;;;;;;;;;;;5074208;28;19923;-76
2021/12/14 15:13:46;;;;;;;;;;;;;;;;;;5074836;28;19923;-75
2021/12/14 15:16:22;;;;;;;;;;;;;;;;;;5075233;28;19923;-77
2021/12/14 15:18:51;;;;;;;;;;;;;;;;;;5074530;28;19927;-76
2021/12/14 15:21:24;;;;;;;;;;;;;;;;;;5075032;28;19966;-76
2021/12/14 15:23:50;;;;;;;;;;;;;;;;;;5074755;28;20017;-75
2021/12/14 15:26:15;;;;;;;;;;;;;;;;;;5074651;28;19990;-75
2021/12/14 15:28:40;;;;;;;;;;;;;;;;;;5074621;28;19923;-78
2021/12/14 15:31:11;;;;;;;;;;;;;;;;;;5074951;28;19947;-75
2021/12/14 15:33:39;;;;;;;;;;;;;;;;;;5074347;28;19920;-77
2021/12/14 15:36:10;;;;;;;;;;;;;;;;;;5074373;28;19982;-76
2021/12/14 15:38:37;;;;;;;;;;;;;;;;;;5074443;28;19974;-75
2021/12/14 15:41:12;;;;;;;;;;;;;;;;;;5074548;28;19916;-75
2021/12/14 15:43:39;;;;;;;;;;;;;;;;;;5074523;28;19916;-76
2021/12/14 15:46:19;;;;;;;;;;;;;;;;;;5073833;28;19923;-78
2021/12/14 15:48:46;;;;;;;;;;;;;;;;;;5074116;28;19920;-75
2021/12/14 15:51:18;;;;;;;;;;;;;;;;;;5072651;28;19917;-75
2021/12/14 15:53:45;;;;;;;;;;;;;;;;;;5073225;28;19917;-75
2021/12/14 15:56:10;;;;;;;;;;;;;;;;;;5073798;28;19969;-76
2021/12/14 15:58:37;;;;;;;;;;;;;;;;;;5074118;28;20324;-77
2021/12/14 16:01:14;;;;;;;;;;;;;;;;;;5074177;28;19942;-77
2021/12/14 16:03:39;;;;;;;;;;;;;;;;;;5074384;28;20302;-76
2021/12/14 16:06:05;;;;;;;;;;;;;;;;;;5073382;28;20042;-77
2021/12/14 16:08:31;;;;;;;;;;;;;;;;;;5073870;28;19962;-77
2021/12/14 16:11:09;;;;;;;;;;;;;;;;;;5073845;28;19927;-77
2021/12/14 16:16:20;;;;;;;;;;;;;;;;;;5073878;28;19969;-77
2021/12/14 16:18:54;;;;;;;;;;;;;;;;;;5076841;28;19924;-77
2021/12/14 16:21:23;;;;;;;;;;;;;;;;;;5073933;28;19917;-77
2021/12/14 16:23:49;;;;;;;;;;;;;;;;;;5109679;28;19915;-76
2021/12/14 16:26:16;;;;;;;;;;;;;;;;;;5114097;28;19912;-76
2021/12/14 16:28:44;;;;;;;;;;;;;;;;;;5108384;28;19916;-76
2021/12/14 16:31:14;;;;;;;;;;;;;;;;;;5095700;28;19916;-76
2021/12/14 16:33:43;;;;;;;;;;;;;;;;;;5087609;28;19916;-75
2021/12/14 16:36:11;;;;;;;;;;;;;;;;;;5073723;28;19952;-78
2021/12/14 16:38:39;;;;;;;;;;;;;;;;;;5073372;28;19924;-78
2021/12/14 16:41:05;;;;;;;;;;;;;;;;;;5073717;28;19920;-76
2021/12/14 16:43:36;;;;;;;;;;;;;;;;;;5073906;28;19962;-75
2021/12/14 16:46:02;;;;;;;;;;;;;;;;;;5073424;28;19924;-75
2021/12/14 16:48:29;;;;;;;;;;;;;;;;;;5076186;28;20298;-75
2021/12/14 16:50:57;;;;;;;;;;;;;;;;;;5093845;28;19938;-75
2021/12/14 16:53:23;;;;;;;;;;;;;;;;;;5092543;28;20293;-76
2021/12/14 16:55:48;;;;;;;;;;;;;;;;;;5093838;28;19923;-77
2021/12/14 16:58:15;;;;;;;;;;;;;;;;;;5092427;28;19927;-76
2021/12/14 17:00:47;;;;;;;;;;;;;;;;;;5093496;28;19961;-76
2021/12/14 17:03:12;;;;;;;;;;;;;;;;;;5094330;28;20010;-76
2021/12/14 17:05:40;;;;;;;;;;;;;;;;;;5097761;28;20012;-77
2021/12/14 17:08:08;;;;;;;;;;;;;;;;;;5082271;28;19931;-75
2021/12/14 17:10:34;;;;;;;;;;;;;;;;;;5077354;28;19951;-75
2021/12/14 17:13:09;;;;;;;;;;;;;;;;;;5077282;28;19916;-75
2021/12/14 17:15:37;;;;;;;;;;;;;;;;;;5076459;28;20015;-76
2021/12/14 17:18:05;;;;;;;;;;;;;;;;;;5077025;28;19921;-78
2021/12/14 17:20:37;;;;;;;;;;;;;;;;;;5076932;28;19916;-76
2021/12/14 17:23:04;;;;;;;;;;;;;;;;;;5077087;28;19917;-75
2021/12/14 17:25:30;;;;;;;;;;;;;;;;;;5076882;28;20007;-75
2021/12/14 17:27:55;;;;;;;;;;;;;;;;;;5076944;28;19962;-75
2021/12/14 17:30:23;;;;;;;;;;;;;;;;;;5076929;28;19916;-76
2021/12/14 17:32:49;;;;;;;;;;;;;;;;;;5076502;28;20012;-76
2021/12/14 17:35:17;;;;;;;;;;;;;;;;;;5076886;28;19952;-76